Time;durP1;ratioP1;P1;durP2;ratioP2;P2;SDS_P1;SDS_P2;PMS_P1;PMS_P2;Temp;Humidity;BMP_temperature;BMP_pressure;BME280_temperature;BME280_humidity;BME280_pressure;Samples;Min_cycle;Max_cycle;Signal;HPM_P1;HPM_P2
2023/11/14 00:02:24;;;;;;;0.93;0.60;;;11.80;99.90;;;;;;5061364;28;20503;-59
2023/11/14 00:04:50;;;;;;;0.80;0.70;;;11.80;99.90;;;;;;5068620;28;20186;-60
2023/11/14 00:07:16;;;;;;;2.40;0.70;;;11.80;99.90;;;;;;5056467;28;20467;-60
2023/11/14 00:09:43;;;;;;;5.33;0.70;;;11.80;99.90;;;;;;5067966;28;20864;-63
2023/11/14 00:12:09;;;;;;;0.70;0.70;;;11.70;99.90;;;;;;5066949;28;20432;-60
2023/11/14 00:14:36;;;;;;;1.43;0.70;;;11.70;99.90;;;;;;5068439;28;20182;-60
2023/11/14 00:17:02;;;;;;;1.13;0.73;;;11.70;99.90;;;;;;5064537;28;20563;-61
2023/11/14 00:19:28;;;;;;;2.33;0.70;;;11.70;99.90;;;;;;5064578;28;20843;-60
2023/11/14 00:21:54;;;;;;;0.63;0.63;;;11.70;99.90;;;;;;5062282;28;20451;-60
2023/11/14 00:24:20;;;;;;;0.70;0.70;;;11.70;99.90;;;;;;5057127;28;20218;-60
2023/11/14 00:26:45;;;;;;;0.80;0.60;;;11.60;99.90;;;;;;5066181;28;20194;-59
2023/11/14 00:29:11;;;;;;;1.07;0.60;;;11.60;99.90;;;;;;5058468;28;20648;-60
2023/11/14 00:31:36;;;;;;;1.57;0.80;;;11.60;99.90;;;;;;5066379;28;20174;-60
2023/11/14 00:34:03;;;;;;;1.50;0.83;;;11.50;99.90;;;;;;5064542;28;20183;-60
2023/11/14 00:36:29;;;;;;;4.17;0.90;;;11.50;99.90;;;;;;5065035;28;20204;-60
2023/11/14 00:38:59;;;;;;;2.33;0.93;;;11.40;99.90;;;;;;5063295;28;20424;-60
2023/11/14 00:41:28;;;;;;;1.97;0.80;;;11.40;99.90;;;;;;5054503;28;20655;-60
2023/11/14 00:43:53;;;;;;;1.40;0.80;;;11.30;99.90;;;;;;5065362;28;20521;-60
2023/11/14 00:46:19;;;;;;;0.80;0.80;;;11.20;99.90;;;;;;5061959;28;20433;-59
2023/11/14 00:48:46;;;;;;;0.97;0.70;;;11.20;99.90;;;;;;5057639;28;20176;-59
2023/11/14 00:51:12;;;;;;;1.33;0.80;;;11.20;99.90;;;;;;5055403;28;20225;-59
2023/11/14 00:53:38;;;;;;;0.97;0.70;;;11.10;99.90;;;;;;5067071;28;20507;-60
2023/11/14 00:56:04;;;;;;;1.00;0.70;;;11.10;99.90;;;;;;5060956;28;20520;-60
2023/11/14 00:58:29;;;;;;;2.70;0.70;;;11.10;99.90;;;;;;5066832;28;20175;-60
2023/11/14 01:00:55;;;;;;;0.80;0.80;;;11.00;99.90;;;;;;5062709;28;20246;-60
2023/11/14 01:03:24;;;;;;;0.80;0.80;;;11.10;99.90;;;;;;5065487;28;20209;-59
2023/11/14 01:05:52;;;;;;;1.00;0.77;;;11.00;99.90;;;;;;5062879;28;20179;-59
2023/11/14 01:08:18;;;;;;;1.67;0.77;;;11.00;99.90;;;;;;5066352;28;20803;-60
2023/11/14 01:10:44;;;;;;;0.83;0.83;;;10.90;99.90;;;;;;5065435;28;20792;-60
2023/11/14 01:13:10;;;;;;;0.90;0.80;;;10.90;99.90;;;;;;5067048;28;20424;-59
2023/11/14 01:15:36;;;;;;;2.00;0.80;;;10.80;99.90;;;;;;5062847;28;20266;-60
2023/11/14 01:18:01;;;;;;;2.53;0.80;;;10.80;99.90;;;;;;5060108;28;21134;-60
2023/11/14 01:20:27;;;;;;;3.37;0.80;;;10.80;99.90;;;;;;5060132;28;20515;-60
2023/11/14 01:22:53;;;;;;;0.83;0.73;;;10.80;99.90;;;;;;5066209;28;20184;-60
2023/11/14 01:25:18;;;;;;;0.60;0.60;;;10.70;99.90;;;;;;5064166;28;20189;-60
2023/11/14 01:27:46;;;;;;;1.10;0.90;;;10.70;99.90;;;;;;5059012;28;20202;-61
2023/11/14 01:30:12;;;;;;;1.00;0.90;;;10.60;99.90;;;;;;5061793;28;20174;-58
2023/11/14 01:32:37;;;;;;;1.60;1.07;;;10.60;99.90;;;;;;5066360;28;20970;-59
2023/11/14 01:35:04;;;;;;;2.40;0.90;;;10.60;99.90;;;;;;5056270;28;20425;-60
2023/11/14 01:37:29;;;;;;;1.77;1.00;;;10.60;99.90;;;;;;5057059;28;20206;-60
2023/11/14 01:39:55;;;;;;;0.80;0.80;;;10.60;99.90;;;;;;5063855;28;20417;-60
2023/11/14 01:42:20;;;;;;;0.77;0.77;;;10.50;99.90;;;;;;5066718;28;20193;-59
2023/11/14 01:44:46;;;;;;;1.00;0.83;;;10.50;99.90;;;;;;5055890;28;20206;-61
2023/11/14 01:47:12;;;;;;;0.90;0.90;;;10.50;99.90;;;;;;5063333;28;20198;-60
2023/11/14 01:49:38;;;;;;;0.80;0.80;;;10.50;99.90;;;;;;5063930;28;20670;-60
2023/11/14 01:52:04;;;;;;;0.90;0.80;;;10.50;99.90;;;;;;5061695;28;20755;-60
2023/11/14 01:54:30;;;;;;;0.70;0.70;;;10.50;99.90;;;;;;5057067;28;20171;-60
2023/11/14 01:56:56;;;;;;;2.33;1.07;;;10.50;99.90;;;;;;5056987;28;20480;-60
2023/11/14 01:59:23;;;;;;;2.60;0.70;;;10.50;99.90;;;;;;5059579;28;20266;-60
2023/11/14 02:01:49;;;;;;;3.23;1.10;;;10.50;99.90;;;;;;5058090;28;20189;-60
2023/11/14 02:04:18;;;;;;;0.80;0.80;;;10.50;99.90;;;;;;5063312;28;20469;-60
2023/11/14 02:06:44;;;;;;;0.77;0.77;;;10.50;99.90;;;;;;5060562;28;20187;-59
2023/11/14 02:09:11;;;;;;;1.53;0.93;;;10.40;99.90;;;;;;5065725;28;20519;-60
2023/11/14 02:11:36;;;;;;;1.23;0.70;;;10.40;99.90;;;;;;5068106;28;20400;-60
2023/11/14 02:14:02;;;;;;;0.90;0.80;;;10.40;99.90;;;;;;5063992;28;20927;-60
2023/11/14 02:16:46;;;;;;;0.70;0.70;;;10.40;99.90;;;;;;5063593;28;20698;-59
2023/11/14 02:19:13;;;;;;;0.70;0.70;;;10.40;99.90;;;;;;5057790;28;20532;-57
2023/11/14 02:21:38;;;;;;;1.10;0.70;;;10.40;99.90;;;;;;5068565;28;20916;-59
2023/11/14 02:24:08;;;;;;;2.07;0.73;;;10.40;99.90;;;;;;5068461;28;20460;-59
2023/11/14 02:26:33;;;;;;;2.20;0.90;;;10.40;99.90;;;;;;5065733;28;20194;-60
2023/11/14 02:28:59;;;;;;;1.10;0.80;;;10.40;99.90;;;;;;5071079;28;20421;-61
2023/11/14 02:31:25;;;;;;;1.53;1.00;;;10.40;99.90;;;;;;5069487;28;20235;-60
2023/11/14 02:33:51;;;;;;;2.03;0.80;;;10.40;99.90;;;;;;5069352;28;20868;-59
2023/11/14 02:36:17;;;;;;;0.80;0.80;;;10.40;99.90;;;;;;5064026;28;20493;-60
2023/11/14 02:38:42;;;;;;;1.20;0.73;;;10.30;99.90;;;;;;5069499;28;20425;-60
2023/11/14 02:41:08;;;;;;;2.13;0.80;;;10.30;99.90;;;;;;5069745;28;20210;-59
2023/11/14 02:43:34;;;;;;;2.00;0.80;;;10.30;99.90;;;;;;5060972;28;20195;-60
2023/11/14 02:45:59;;;;;;;1.90;0.90;;;10.30;99.90;;;;;;5059528;28;20235;-60
2023/11/14 02:48:25;;;;;;;1.17;0.70;;;10.30;99.90;;;;;;5065477;28;20580;-60
2023/11/14 02:50:53;;;;;;;0.80;0.80;;;10.30;99.90;;;;;;5066167;28;20189;-60
2023/11/14 02:53:20;;;;;;;1.00;0.90;;;10.30;99.90;;;;;;5064415;28;20276;-60
2023/11/14 02:55:47;;;;;;;1.03;0.90;;;10.30;99.90;;;;;;5064351;28;20432;-60
2023/11/14 02:58:13;;;;;;;1.20;0.70;;;10.30;99.90;;;;;;5067974;28;20436;-59
2023/11/14 03:00:43;;;;;;;1.23;1.13;;;10.30;99.90;;;;;;5069963;28;20475;-60
2023/11/14 03:03:12;;;;;;;1.23;0.70;;;10.30;99.90;;;;;;5062707;28;20461;-60
2023/11/14 03:05:38;;;;;;;2.20;0.83;;;10.20;99.90;;;;;;5059177;28;20436;-60
2023/11/14 03:08:04;;;;;;;2.67;1.00;;;10.20;99.90;;;;;;5065481;28;20459;-60
2023/11/14 03:10:32;;;;;;;1.10;0.80;;;10.20;99.90;;;;;;5068814;28;20177;-60
2023/11/14 03:12:59;;;;;;;1.07;0.80;;;10.20;99.90;;;;;;5054022;28;20179;-59
2023/11/14 03:15:26;;;;;;;1.53;0.90;;;10.20;99.90;;;;;;5064798;28;20459;-59
2023/11/14 03:17:56;;;;;;;4.43;1.00;;;10.20;99.90;;;;;;5066969;28;20486;-60
2023/11/14 03:20:22;;;;;;;1.97;1.00;;;10.20;99.90;;;;;;5061382;28;20433;-59
2023/11/14 03:22:47;;;;;;;2.03;0.90;;;10.20;99.90;;;;;;5067109;28;20428;-60
2023/11/14 03:25:13;;;;;;;1.67;0.93;;;10.20;99.90;;;;;;5059196;28;20983;-59
2023/11/14 03:27:40;;;;;;;1.80;1.07;;;10.10;99.90;;;;;;5064120;28;20285;-60
2023/11/14 03:30:07;;;;;;;1.23;1.00;;;10.10;99.90;;;;;;5065458;28;20175;-59
2023/11/14 03:32:33;;;;;;;2.50;1.10;;;10.10;99.90;;;;;;5062871;28;20440;-59
2023/11/14 03:34:58;;;;;;;1.40;1.00;;;10.00;99.90;;;;;;5056297;28;20511;-60
2023/11/14 03:37:24;;;;;;;5.53;1.27;;;10.00;99.90;;;;;;5064541;28;20456;-60
2023/11/14 03:39:50;;;;;;;3.27;1.20;;;9.90;99.90;;;;;;5062659;28;20179;-59
2023/11/14 03:42:15;;;;;;;3.50;1.00;;;9.90;99.90;;;;;;5061856;28;20175;-61
2023/11/14 03:44:41;;;;;;;4.00;1.10;;;9.90;99.90;;;;;;5065744;28;20194;-60
2023/11/14 03:47:07;;;;;;;0.80;0.80;;;9.80;99.90;;;;;;5067756;28;20282;-59
2023/11/14 03:49:32;;;;;;;1.30;0.90;;;9.80;99.90;;;;;;5066065;28;20186;-59
2023/11/14 03:51:58;;;;;;;2.20;1.07;;;9.70;99.90;;;;;;5064884;28;20650;-59
2023/11/14 03:54:25;;;;;;;2.43;1.00;;;9.70;99.90;;;;;;5064852;28;20181;-60
2023/11/14 03:56:51;;;;;;;1.30;1.13;;;9.70;99.90;;;;;;5059381;28;21132;-61
2023/11/14 03:59:16;;;;;;;1.23;1.10;;;9.70;99.90;;;;;;5064876;28;20419;-60
2023/11/14 04:01:42;;;;;;;1.60;1.00;;;9.60;99.90;;;;;;5064034;28;20175;-60
2023/11/14 04:04:07;;;;;;;0.87;0.87;;;9.60;99.90;;;;;;5060352;28;20214;-60
2023/11/14 04:06:33;;;;;;;1.73;1.10;;;9.60;99.90;;;;;;5060802;28;20241;-60
2023/11/14 04:08:59;;;;;;;1.43;1.00;;;9.60;99.90;;;;;;5063945;28;20201;-60
2023/11/14 04:11:24;;;;;;;1.50;0.90;;;9.60;99.90;;;;;;5064680;28;20556;-60
2023/11/14 04:13:50;;;;;;;2.00;0.90;;;9.50;99.90;;;;;;5065493;28;20440;-59
2023/11/14 04:16:16;;;;;;;2.10;1.00;;;9.50;99.90;;;;;;5028005;28;1086320;-60
2023/11/14 04:18:42;;;;;;;1.80;0.90;;;9.50;99.90;;;;;;5067340;28;20174;-59
2023/11/14 04:21:18;;;;;;;0.80;0.80;;;9.40;99.90;;;;;;5069063;28;20487;-59
2023/11/14 04:23:45;;;;;;;5.43;0.90;;;9.50;99.90;;;;;;5062923;28;20588;-59
2023/11/14 04:26:10;;;;;;;1.00;1.00;;;9.40;99.90;;;;;;5067080;28;20463;-60
2023/11/14 04:28:36;;;;;;;1.13;1.03;;;9.40;99.90;;;;;;5062679;28;20911;-59
2023/11/14 04:31:02;;;;;;;2.43;1.00;;;9.40;99.90;;;;;;5068480;28;20182;-59
2023/11/14 04:33:27;;;;;;;1.00;0.90;;;9.40;99.90;;;;;;5060844;28;20182;-59
2023/11/14 04:35:53;;;;;;;1.20;1.10;;;9.40;99.90;;;;;;5064269;28;20663;-59
2023/11/14 04:38:19;;;;;;;0.80;0.80;;;9.40;99.90;;;;;;5067297;28;20179;-60
2023/11/14 04:40:44;;;;;;;1.87;1.30;;;9.30;99.90;;;;;;5065693;28;20257;-59
2023/11/14 04:43:10;;;;;;;3.80;1.07;;;9.30;99.90;;;;;;5066754;28;20202;-59
2023/11/14 04:45:36;;;;;;;1.33;1.07;;;9.40;99.90;;;;;;5065780;28;20678;-59
2023/11/14 04:48:02;;;;;;;1.47;0.93;;;9.30;99.90;;;;;;5059738;28;20441;-59
2023/11/14 04:50:27;;;;;;;1.00;1.00;;;9.30;99.90;;;;;;5058877;28;20185;-59
2023/11/14 04:52:53;;;;;;;0.90;0.90;;;9.30;99.90;;;;;;5061323;28;20171;-59
2023/11/14 04:55:19;;;;;;;1.53;0.93;;;9.30;99.90;;;;;;5066043;28;20178;-59
2023/11/14 04:57:44;;;;;;;1.87;1.10;;;9.30;99.90;;;;;;5063594;28;20201;-58
2023/11/14 05:00:11;;;;;;;1.00;1.00;;;9.30;99.90;;;;;;5057334;28;20816;-59
2023/11/14 05:02:37;;;;;;;1.80;1.00;;;9.30;99.90;;;;;;5057130;28;20191;-56
2023/11/14 05:05:02;;;;;;;2.07;1.17;;;9.30;99.90;;;;;;5057359;28;20489;-56
2023/11/14 05:07:28;;;;;;;1.10;0.97;;;9.30;99.90;;;;;;5059967;28;20194;-57
2023/11/14 05:09:54;;;;;;;1.27;1.10;;;9.30;99.90;;;;;;5062357;28;20174;-59
2023/11/14 05:12:19;;;;;;;2.60;1.33;;;9.30;99.90;;;;;;5061716;28;20179;-59
2023/11/14 05:14:45;;;;;;;1.90;1.30;;;9.30;99.90;;;;;;5065246;28;20181;-60
2023/11/14 05:17:11;;;;;;;1.37;1.27;;;9.30;99.90;;;;;;5063930;28;20325;-60
2023/11/14 05:19:37;;;;;;;2.83;1.20;;;9.30;99.90;;;;;;5061309;28;20492;-59
2023/11/14 05:22:02;;;;;;;1.63;1.30;;;9.30;99.90;;;;;;5059883;28;20190;-60
2023/11/14 05:24:28;;;;;;;1.80;1.10;;;9.20;99.90;;;;;;5052243;28;20293;-59
2023/11/14 05:26:53;;;;;;;2.10;1.60;;;9.20;99.90;;;;;;5056173;28;20753;-59
2023/11/14 05:29:19;;;;;;;1.87;1.40;;;9.20;99.90;;;;;;5053221;28;20236;-59
2023/11/14 05:31:45;;;;;;;1.63;1.23;;;9.20;99.90;;;;;;5056172;28;20182;-60
2023/11/14 05:34:11;;;;;;;2.70;1.50;;;9.20;99.90;;;;;;5054129;28;20202;-60
2023/11/14 05:36:37;;;;;;;1.43;1.30;;;9.20;99.90;;;;;;5051609;28;20460;-62
2023/11/14 05:39:04;;;;;;;2.53;1.57;;;9.10;99.90;;;;;;5054095;28;20433;-60
2023/11/14 05:41:30;;;;;;;1.87;1.20;;;9.20;99.90;;;;;;5053043;28;20605;-59
2023/11/14 05:43:57;;;;;;;3.53;1.10;;;9.10;99.90;;;;;;5056651;28;20504;-60
2023/11/14 05:46:22;;;;;;;1.13;1.03;;;9.10;99.90;;;;;;5058828;28;20302;-59
2023/11/14 05:48:48;;;;;;;2.90;1.50;;;9.10;99.90;;;;;;5056350;28;20520;-59
2023/11/14 05:51:14;;;;;;;1.93;1.00;;;9.10;99.90;;;;;;5061243;28;20181;-60
2023/11/14 05:53:40;;;;;;;2.57;1.10;;;9.10;99.90;;;;;;5056877;28;20725;-60
2023/11/14 05:56:06;;;;;;;1.30;1.20;;;9.10;99.90;;;;;;5058482;28;20175;-59
2023/11/14 05:58:31;;;;;;;1.00;1.00;;;9.10;99.90;;;;;;5059163;28;20440;-59
2023/11/14 06:00:57;;;;;;;2.40;1.20;;;9.10;99.90;;;;;;5063440;28;20464;-60
2023/11/14 06:03:23;;;;;;;2.90;1.10;;;9.00;99.90;;;;;;5060917;28;20209;-60
2023/11/14 06:05:49;;;;;;;1.67;0.97;;;9.00;99.90;;;;;;5056068;28;20171;-60
2023/11/14 06:08:15;;;;;;;3.53;1.30;;;9.00;99.90;;;;;;5057330;28;20463;-59
2023/11/14 06:10:41;;;;;;;1.90;1.17;;;9.00;99.90;;;;;;5066636;28;20181;-60
2023/11/14 06:13:06;;;;;;;1.23;1.13;;;9.00;99.90;;;;;;5062930;28;20182;-60
2023/11/14 06:15:32;;;;;;;3.73;1.40;;;8.90;99.90;;;;;;5060345;28;20599;-60
2023/11/14 06:17:57;;;;;;;1.00;0.97;;;8.90;99.90;;;;;;5064601;28;20203;-59
2023/11/14 06:20:23;;;;;;;1.40;1.00;;;8.90;99.90;;;;;;5067194;28;20693;-60
2023/11/14 06:22:50;;;;;;;1.67;1.10;;;8.90;99.90;;;;;;5062195;28;20167;-59
2023/11/14 06:25:16;;;;;;;1.37;1.20;;;8.90;99.90;;;;;;5052197;28;20174;-59
2023/11/14 06:27:42;;;;;;;1.10;1.00;;;8.90;99.90;;;;;;5053041;28;20915;-60
2023/11/14 06:30:08;;;;;;;1.50;1.40;;;8.90;99.90;;;;;;5058830;28;20444;-59
2023/11/14 06:32:35;;;;;;;2.40;1.20;;;8.90;99.90;;;;;;5066003;28;20196;-60
2023/11/14 06:35:02;;;;;;;1.20;1.10;;;8.80;99.90;;;;;;5060939;28;20182;-60
2023/11/14 06:37:28;;;;;;;1.60;1.50;;;8.80;99.90;;;;;;5051953;28;20452;-60
2023/11/14 06:39:55;;;;;;;3.63;1.90;;;8.80;99.90;;;;;;5063986;28;20546;-59
2023/11/14 06:42:24;;;;;;;2.90;1.53;;;8.80;99.90;;;;;;5062432;28;20183;-59
2023/11/14 06:44:50;;;;;;;2.50;1.53;;;8.70;99.90;;;;;;5062630;28;20468;-60
2023/11/14 06:47:16;;;;;;;4.30;1.87;;;8.70;99.90;;;;;;5062781;28;20456;-59
2023/11/14 06:49:43;;;;;;;3.17;1.43;;;8.70;99.90;;;;;;5064870;28;20408;-60
2023/11/14 06:52:10;;;;;;;2.80;1.60;;;8.70;99.90;;;;;;5063643;28;20821;-60
2023/11/14 06:54:36;;;;;;;2.77;1.80;;;8.70;99.90;;;;;;5069602;28;20413;-60
2023/11/14 06:57:02;;;;;;;8.70;1.87;;;8.70;99.90;;;;;;5070138;28;20436;-59
2023/11/14 06:59:30;;;;;;;3.60;2.00;;;8.60;99.90;;;;;;5059638;28;20433;-60
2023/11/14 07:01:56;;;;;;;3.30;2.33;;;8.60;99.90;;;;;;5068550;28;20183;-60
2023/11/14 07:04:21;;;;;;;1.73;1.57;;;8.60;99.90;;;;;;5067193;28;20456;-60
2023/11/14 07:06:47;;;;;;;4.70;1.77;;;8.60;99.90;;;;;;5063450;28;20593;-60
2023/11/14 07:09:15;;;;;;;2.73;2.13;;;8.60;99.90;;;;;;5068344;28;20232;-60
2023/11/14 07:11:41;;;;;;;3.37;1.90;;;8.60;99.90;;;;;;5068647;28;20257;-60
2023/11/14 07:14:08;;;;;;;3.10;1.80;;;8.60;99.90;;;;;;5065135;28;20435;-60
2023/11/14 07:16:33;;;;;;;2.20;2.00;;;8.60;99.90;;;;;;5069323;28;20555;-61
2023/11/14 07:18:59;;;;;;;2.07;1.60;;;8.60;99.90;;;;;;5058322;28;20500;-60
2023/11/14 07:21:25;;;;;;;3.23;1.53;;;8.60;99.90;;;;;;5067888;28;20261;-60
2023/11/14 07:23:50;;;;;;;2.20;1.57;;;8.60;99.90;;;;;;5067101;28;20213;-59
2023/11/14 07:26:16;;;;;;;4.10;1.80;;;8.60;99.90;;;;;;5063908;28;20252;-59
2023/11/14 07:28:42;;;;;;;4.60;1.60;;;8.60;99.90;;;;;;5064904;28;20558;-60
2023/11/14 07:31:08;;;;;;;3.63;2.80;;;8.60;99.90;;;;;;5066518;28;20175;-60
2023/11/14 07:33:33;;;;;;;2.67;2.10;;;8.60;99.90;;;;;;5066011;28;20485;-60
2023/11/14 07:35:59;;;;;;;3.60;2.00;;;8.60;99.90;;;;;;5063485;28;20201;-59
2023/11/14 07:38:25;;;;;;;2.30;1.93;;;8.60;99.90;;;;;;5062074;28;20209;-60
2023/11/14 07:40:52;;;;;;;3.10;1.93;;;8.60;99.90;;;;;;5067415;28;20425;-60
2023/11/14 07:43:23;;;;;;;2.00;1.77;;;8.50;99.90;;;;;;5066346;28;20225;-59
2023/11/14 07:45:49;;;;;;;2.13;1.60;;;8.50;99.90;;;;;;5063773;28;21879;-59
2023/11/14 07:48:16;;;;;;;3.00;2.23;;;8.50;99.90;;;;;;5063826;28;20437;-60
2023/11/14 07:50:42;;;;;;;2.23;1.60;;;8.40;99.90;;;;;;5055859;28;20413;-59
2023/11/14 07:53:09;;;;;;;4.00;1.83;;;8.40;99.90;;;;;;5066250;28;20449;-60
2023/11/14 07:55:35;;;;;;;2.20;1.90;;;8.30;99.90;;;;;;5064218;28;20232;-61
2023/11/14 07:58:01;;;;;;;2.83;1.60;;;8.30;99.90;;;;;;5066451;28;20468;-60
2023/11/14 08:00:26;;;;;;;5.60;1.90;;;8.30;99.90;;;;;;5060427;28;20983;-60
2023/11/14 08:02:52;;;;;;;1.50;1.40;;;8.20;99.90;;;;;;5059737;28;20261;-60
2023/11/14 08:05:17;;;;;;;2.00;1.50;;;8.30;99.90;;;;;;5061679;28;20636;-59
2023/11/14 08:07:43;;;;;;;2.33;1.90;;;8.30;99.90;;;;;;5058091;28;20195;-60
2023/11/14 08:10:09;;;;;;;3.33;1.60;;;8.30;99.90;;;;;;5064519;28;20194;-60
2023/11/14 08:12:36;;;;;;;6.83;1.80;;;8.30;99.90;;;;;;5058658;28;20186;-59
2023/11/14 08:15:01;;;;;;;2.43;2.23;;;8.30;99.90;;;;;;5059323;28;20556;-59
2023/11/14 08:17:27;;;;;;;6.83;1.97;;;8.30;99.90;;;;;;5061836;28;20555;-60
2023/11/14 08:19:53;;;;;;;2.23;1.97;;;8.30;99.90;;;;;;5061691;28;20186;-59
2023/11/14 08:22:18;;;;;;;4.80;1.80;;;8.20;99.90;;;;;;5063734;28;20709;-59
2023/11/14 08:24:44;;;;;;;2.90;1.93;;;8.20;99.90;;;;;;5060743;28;20260;-60
2023/11/14 08:27:10;;;;;;;5.97;2.67;;;8.30;99.90;;;;;;5057591;28;20202;-60
2023/11/14 08:29:36;;;;;;;2.53;1.90;;;8.20;99.90;;;;;;5067302;28;20175;-60
2023/11/14 08:32:03;;;;;;;6.23;2.30;;;8.30;99.90;;;;;;5060430;28;20963;-60
2023/11/14 08:34:29;;;;;;;4.70;3.00;;;8.30;99.90;;;;;;5065201;28;20444;-61
2023/11/14 08:36:55;;;;;;;3.67;2.33;;;8.30;99.90;;;;;;5064937;28;20448;-60
2023/11/14 08:39:20;;;;;;;3.10;2.30;;;8.30;99.90;;;;;;5065921;28;20182;-59
2023/11/14 08:41:46;;;;;;;3.67;2.70;;;8.30;99.90;;;;;;5065996;28;20419;-60
2023/11/14 08:44:11;;;;;;;4.63;2.07;;;8.30;99.90;;;;;;5057789;28;20681;-60
2023/11/14 08:46:37;;;;;;;3.20;1.83;;;8.40;99.90;;;;;;5061412;28;20190;-60
2023/11/14 08:49:07;;;;;;;6.50;3.43;;;8.40;99.90;;;;;;5061644;28;20649;-60
2023/11/14 08:51:36;;;;;;;5.50;2.30;;;8.40;99.90;;;;;;5065161;28;20166;-60
2023/11/14 08:54:01;;;;;;;8.00;1.87;;;8.40;99.90;;;;;;5057630;28;20441;-54
2023/11/14 08:56:29;;;;;;;3.20;1.87;;;8.40;99.90;;;;;;5067458;28;20946;-60
2023/11/14 08:58:58;;;;;;;4.40;1.80;;;8.40;99.90;;;;;;5063320;28;20722;-60
2023/11/14 09:01:24;;;;;;;2.97;1.70;;;8.50;99.90;;;;;;5064521;28;20507;-60
2023/11/14 09:03:50;;;;;;;4.83;1.70;;;8.50;99.90;;;;;;5066437;28;20460;-60
2023/11/14 09:06:16;;;;;;;6.87;2.00;;;8.50;99.90;;;;;;5056981;28;20440;-60
2023/11/14 09:08:42;;;;;;;3.00;1.40;;;8.50;99.90;;;;;;5060161;28;20428;-59
2023/11/14 09:11:08;;;;;;;7.93;1.60;;;8.60;99.90;;;;;;5065633;28;20832;-60
2023/11/14 09:13:34;;;;;;;6.70;1.90;;;8.60;99.90;;;;;;5061519;28;20308;-59
2023/11/14 09:16:01;;;;;;;4.37;1.57;;;8.60;99.90;;;;;;5064573;28;20474;-60
2023/11/14 09:18:27;;;;;;;2.63;1.73;;;8.60;99.90;;;;;;5063653;28;20174;-60
2023/11/14 09:20:55;;;;;;;4.40;1.70;;;8.70;99.90;;;;;;5059954;28;20428;-60
2023/11/14 09:23:21;;;;;;;3.23;1.83;;;8.70;99.90;;;;;;5063263;28;20551;-59
2023/11/14 09:25:46;;;;;;;3.73;1.50;;;8.70;99.90;;;;;;5064047;28;20447;-61
2023/11/14 09:28:12;;;;;;;3.70;1.33;;;8.70;99.90;;;;;;5065546;28;20428;-60
2023/11/14 09:30:38;;;;;;;6.17;2.40;;;8.70;99.90;;;;;;5064309;28;20170;-59
2023/11/14 09:33:03;;;;;;;4.63;2.23;;;8.70;99.90;;;;;;5064147;28;20572;-59
2023/11/14 09:35:29;;;;;;;3.77;1.57;;;8.70;99.90;;;;;;5062211;28;20166;-59
2023/11/14 09:37:56;;;;;;;1.63;1.50;;;8.70;99.90;;;;;;5062669;28;20789;-59
2023/11/14 09:40:22;;;;;;;2.50;2.30;;;8.70;99.90;;;;;;5058553;28;20178;-60
2023/11/14 09:42:49;;;;;;;3.77;1.40;;;8.70;99.90;;;;;;5060436;28;20513;-60
2023/11/14 09:45:20;;;;;;;4.50;1.63;;;8.80;99.90;;;;;;5061668;28;20495;-60
2023/11/14 09:47:46;;;;;;;6.97;2.20;;;8.70;99.90;;;;;;5062209;28;20451;-60
2023/11/14 09:50:12;;;;;;;6.70;2.70;;;8.70;99.90;;;;;;5062480;28;20432;-58
2023/11/14 09:52:38;;;;;;;4.53;1.70;;;8.70;99.90;;;;;;5060774;28;20187;-61
2023/11/14 09:55:05;;;;;;;4.40;1.80;;;8.80;99.90;;;;;;5062601;28;20468;-59
2023/11/14 09:57:33;;;;;;;5.17;1.80;;;8.70;99.90;;;;;;5058738;28;20448;-60
2023/11/14 10:00:00;;;;;;;6.57;2.53;;;8.70;99.90;;;;;;5061390;28;20432;-61
2023/11/14 10:02:26;;;;;;;6.57;1.53;;;8.70;99.90;;;;;;5065631;28;20417;-60
2023/11/14 10:04:51;;;;;;;5.43;1.47;;;8.70;99.90;;;;;;5062513;28;21144;-60
2023/11/14 10:07:20;;;;;;;4.33;1.70;;;8.70;99.90;;;;;;5058979;28;20452;-59
2023/11/14 10:09:47;;;;;;;2.80;1.70;;;8.70;99.90;;;;;;5061860;28;20276;-60
2023/11/14 10:12:33;;;;;;;7.23;2.00;;;8.70;99.90;;;;;;5062248;28;20516;-59
2023/11/14 10:14:59;;;;;;;2.30;1.53;;;8.70;99.90;;;;;;5055711;28;20444;-60
2023/11/14 10:17:29;;;;;;;2.50;1.97;;;8.70;99.90;;;;;;5063136;28;20464;-60
2023/11/14 10:20:08;;;;;;;5.20;1.90;;;8.70;99.90;;;;;;5062665;28;20776;-61
2023/11/14 10:22:35;;;;;;;2.13;1.37;;;8.70;99.90;;;;;;5062005;28;20488;-60
2023/11/14 10:25:01;;;;;;;2.50;1.70;;;8.70;99.90;;;;;;5061833;28;20451;-60
2023/11/14 10:27:33;;;;;;;4.07;1.90;;;8.80;99.90;;;;;;5061776;28;20531;-61
2023/11/14 10:29:59;;;;;;;3.10;2.30;;;8.80;99.90;;;;;;5064722;28;20549;-60
2023/11/14 10:32:25;;;;;;;5.47;2.70;;;8.80;99.90;;;;;;5063273;28;20926;-60
2023/11/14 10:34:52;;;;;;;2.80;1.60;;;8.80;99.90;;;;;;5064660;28;20179;-60
2023/11/14 10:37:30;;;;;;;1.90;1.70;;;8.80;99.90;;;;;;5067410;28;20958;-60
2023/11/14 10:39:57;;;;;;;4.43;2.43;;;8.80;99.90;;;;;;5064952;28;20442;-60
2023/11/14 10:42:24;;;;;;;2.87;2.20;;;8.90;99.90;;;;;;5064015;28;20433;-60
2023/11/14 10:44:59;;;;;;;3.23;1.90;;;9.00;99.90;;;;;;5064014;28;20513;-60
2023/11/14 10:47:45;;;;;;;5.30;2.10;;;9.00;99.90;;;;;;5068396;28;20442;-60
2023/11/14 10:50:28;;;;;;;4.37;1.93;;;9.10;99.90;;;;;;5065666;28;21035;-60
2023/11/14 10:52:54;;;;;;;3.20;1.90;;;9.20;99.90;;;;;;5065294;28;20895;-60
2023/11/14 10:55:22;;;;;;;2.33;1.90;;;9.20;99.90;;;;;;5067999;28;20776;-60
2023/11/14 10:57:52;;;;;;;4.63;1.90;;;9.20;99.90;;;;;;5065330;28;20505;-60
2023/11/14 11:00:20;;;;;;;3.47;1.80;;;9.30;99.90;;;;;;5062097;28;20500;-58
2023/11/14 11:02:50;;;;;;;3.67;1.67;;;9.30;99.90;;;;;;5062564;28;20460;-60
2023/11/14 11:05:17;;;;;;;1.60;1.50;;;9.20;99.90;;;;;;5062184;28;20468;-59
2023/11/14 11:07:43;;;;;;;3.13;2.10;;;9.20;99.90;;;;;;5063573;28;20440;-59
2023/11/14 11:10:09;;;;;;;1.73;1.63;;;9.20;99.90;;;;;;5068698;28;20432;-55
2023/11/14 11:12:39;;;;;;;2.70;2.00;;;9.20;99.90;;;;;;5067220;28;20420;-60
2023/11/14 11:15:09;;;;;;;2.90;1.90;;;9.20;99.90;;;;;;5063395;28;20508;-60
2023/11/14 11:17:46;;;;;;;2.30;1.57;;;9.20;99.90;;;;;;5057234;28;20995;-61
2023/11/14 11:20:27;;;;;;;4.70;1.87;;;9.20;99.90;;;;;;5060697;28;20424;-60
2023/11/14 11:23:02;;;;;;;1.87;1.50;;;9.20;99.90;;;;;;5065874;28;20420;-60
2023/11/14 11:25:29;;;;;;;2.40;1.60;;;9.30;99.90;;;;;;5066351;28;20896;-60
2023/11/14 11:27:55;;;;;;;2.90;2.00;;;9.30;99.90;;;;;;5062572;28;20532;-60
2023/11/14 11:30:21;;;;;;;7.17;2.50;;;9.30;99.90;;;;;;5066160;28;20825;-60
2023/11/14 11:32:54;;;;;;;3.97;1.73;;;9.30;99.90;;;;;;5065380;28;20409;-60
2023/11/14 11:35:19;;;;;;;3.70;1.80;;;9.30;99.90;;;;;;5060785;28;20644;-59
2023/11/14 11:38:09;;;;;;;4.60;1.67;;;9.30;99.90;;;;;;5069078;28;20432;-60
2023/11/14 11:40:35;;;;;;;4.53;1.60;;;9.30;99.90;;;;;;5061639;28;20579;-59
2023/11/14 11:43:10;;;;;;;4.90;1.60;;;9.30;99.90;;;;;;5063246;28;20425;-60
2023/11/14 11:45:41;;;;;;;4.03;1.80;;;9.40;99.90;;;;;;5063132;28;20435;-59
2023/11/14 11:48:36;;;;;;;7.43;3.23;;;9.40;99.90;;;;;;5068183;28;20432;-61
2023/11/14 11:51:20;;;;;;;2.70;1.80;;;9.40;99.90;;;;;;5057835;28;20583;-60
2023/11/14 11:53:46;;;;;;;3.60;1.73;;;9.40;99.90;;;;;;5060186;28;20416;-60
2023/11/14 11:56:32;;;;;;;2.60;2.07;;;9.40;99.90;;;;;;5062860;28;20448;-60
2023/11/14 11:58:58;;;;;;;2.40;1.53;;;9.40;99.90;;;;;;5062753;28;20420;-60
2023/11/14 12:01:23;;;;;;;6.20;1.40;;;9.40;99.90;;;;;;5061892;28;20443;-60
2023/11/14 12:03:49;;;;;;;2.43;1.60;;;9.40;99.90;;;;;;5068578;28;20696;-60
2023/11/14 12:06:15;;;;;;;3.33;1.73;;;9.40;99.90;;;;;;5061038;28;20182;-59
2023/11/14 12:08:41;;;;;;;11.10;2.47;;;9.40;99.90;;;;;;5058294;28;20214;-60
2023/11/14 12:11:14;;;;;;;4.10;2.03;;;9.40;99.90;;;;;;5064023;28;20891;-61
2023/11/14 12:13:41;;;;;;;4.27;1.70;;;9.40;99.90;;;;;;5060864;28;20219;-60
2023/11/14 12:16:07;;;;;;;1.67;1.30;;;9.40;99.90;;;;;;5056734;28;20464;-60
2023/11/14 12:18:33;;;;;;;8.40;2.67;;;9.40;99.90;;;;;;5059209;28;20439;-58
2023/11/14 12:20:59;;;;;;;2.37;2.13;;;9.40;99.90;;;;;;5058093;28;20292;-60
2023/11/14 12:23:24;;;;;;;5.07;2.53;;;9.30;99.90;;;;;;5064255;28;20183;-59
2023/11/14 12:25:50;;;;;;;6.60;3.00;;;9.30;99.90;;;;;;5062588;28;20179;-59
2023/11/14 12:28:16;;;;;;;6.30;2.80;;;9.30;99.90;;;;;;5065995;28;20198;-59
2023/11/14 12:31:00;;;;;;;8.17;4.17;;;9.30;99.90;;;;;;5058347;28;20182;-59
2023/11/14 12:33:26;;;;;;;7.70;4.00;;;9.30;99.90;;;;;;5064078;28;20203;-60
2023/11/14 12:35:59;;;;;;;6.80;2.40;;;9.20;99.90;;;;;;5056558;28;20995;-60
2023/11/14 12:38:35;;;;;;;5.67;2.20;;;9.20;99.90;;;;;;5057293;28;20428;-61
2023/11/14 12:41:31;;;;;;;4.13;2.10;;;9.20;99.90;;;;;;5057705;28;20429;-59
2023/11/14 12:43:59;;;;;;;7.70;1.60;;;9.20;99.90;;;;;;5061605;28;20463;-61
2023/11/14 12:46:30;;;;;;;3.87;1.97;;;9.20;99.90;;;;;;5060596;28;20498;-60
2023/11/14 12:49:16;;;;;;;4.83;2.20;;;9.10;99.90;;;;;;5064057;28;20432;-60
2023/11/14 12:51:41;;;;;;;7.07;2.80;;;9.10;99.90;;;;;;5064143;28;20433;-60
2023/11/14 12:54:08;;;;;;;2.77;1.70;;;9.00;99.90;;;;;;5064613;28;20440;-60